• Join FlightAware (Why Join?)
  • Login
  • US Flag 
09:58AM EDT


 

Airport Tracker/Info


-or-


 

Live Flight TrackerFlight Track Log ✈ AWE3374 ✈ 26-Apr-2013 ✈ KDCA - KMHT

Flight Track Log - Related Links

Times and Time Zones

All times are in EDT time to prevent confusion due to time zone crossing. See the AWE3374 flight status page for this flight to view local times or setup timezone preferences in your user account.

Time Position Orientation Groundspeed Altitude Reporting Facility
EDT Latitude Longitude Course Direction KTS MPH feet Rate Location/Type
03:10PM 38.9000 -77.0833 83° East 153 176 2,200  Level Potomac TRACON
03:11PM 38.9333 -77.1333 311° West 227 261 4,000 2,220 Climbing Potomac TRACON
03:12PM 39.0398 -76.5005 63° Northeast  Level FlightAware Approximate
03:13PM 39.0946 -76.3683 61° Northeast  Level FlightAware Approximate
03:13PM 39.0261 -77.0025 48° Northeast 215 247 9,800  Level Washington Center
03:14PM 39.1342 -76.2325 38° Northeast  Level FlightAware Approximate
03:14PM 39.0439 -76.8878 79° East 268 308 11,800  Level Washington Center
03:15PM 39.1623 -76.0934 83° East  Level FlightAware Approximate
03:15PM 39.0908 -76.7844 60° Northeast 296 341 14,400  Level Washington Center
03:16PM 39.1067 -76.6536 81° East 332 382 16,700 1,920 Climbing Washington Center
03:17PM 39.1203 -76.5228 82° East 355 409 18,300 1,320 Climbing Washington Center
03:18PM 39.1358 -76.3756 82° East 386 444 19,400 1,320 Climbing Washington Center
03:19PM 39.1492 -76.2528 82° East 405 466 21,000 1,740 Climbing Washington Center
03:20PM 39.1708 -76.0575 82° East 440 506 22,900 960 Climbing Washington Center
03:21PM 39.1964 -75.8994 78° East 453 521 23,000 540 Climbing Washington Center
03:22PM 39.2736 -75.7792 50° Northeast 423 487 24,000 1,920 Climbing Washington Center
03:23PM 39.3614 -75.6667 45° Northeast 433 498 26,800 2,160 Climbing Washington Center
03:24PM 39.4428 -75.5594 45° Northeast 421 484 28,400 1,320 Climbing Washington Center
03:25PM 39.5258 -75.4489 46° Northeast 421 484 29,500 1,140 Climbing Washington Center
03:26PM 39.6111 -75.3356 46° Northeast 421 484 30,700 720 Climbing Washington Center
03:27PM 39.6983 -75.2194 46° Northeast 432 497 31,000 120 Climbing Washington Center
03:28PM 39.7853 -75.0947 48° Northeast 456 525 31,000  Level Washington Center
03:30PM 39.9728 -74.8283 47° Northeast 474 545 31,000  Level New York Center
03:31PM 40.0694 -74.6875 47° Northeast 474 545 31,000  Level New York Center
03:32PM 40.0362 -74.7126 47° Northeast  Level FlightAware Approximate
03:32PM 40.1569 -74.5622 48° Northeast 469 540 31,000  Level New York Center
03:33PM 40.2503 -74.4422 44° Northeast 469 540 31,000  Level New York Center
03:34PM 40.3517 -74.3333 39° Northeast 469 540 31,000  Level New York Center
03:35PM 40.4550 -74.2242 39° Northeast 463 533 31,000  Level New York Center
03:37PM 40.6469 -74.0211 39° Northeast 464 534 31,000  Level Boston Center
03:38PM 40.7275 -73.9328 40° Northeast 469 540 31,000  Level Boston Center
03:39PM 40.8686 -73.8233 30° Northeast 463 533 31,000  Level Boston Center
03:40PM 40.9839 -73.7572 23° Northeast 450 518 31,000  Level Boston Center
03:41PM 41.0992 -73.6906 24° Northeast 444 511 31,000  Level Boston Center
03:42PM 41.1933 -73.6567 15° North 444 511 31,000  Level Boston Center
03:43PM 41.3369 -73.6703 356° North 427 491 31,000  Level Boston Center
03:44PM 41.4578 -73.6839 355° North 422 486 31,000  Level Boston Center
03:45PM 41.5744 -73.6917 357° North 422 486 31,000  Level Boston Center
03:46PM 41.6994 -73.7053 355° North 434 499 31,000  Level Boston Center
03:47PM 41.8014 -73.7183 355° North 434 499 31,000  Level Boston Center
03:48PM 41.9242 -73.7292 356° North 429 494 31,000  Level Boston Center
03:49PM 42.0533 -73.7347 358° North 424 488 31,000 -240 Level Boston Center
03:50PM 42.1669 -73.6417 31° Northeast 428 493 30,600 -840 Descending Boston Center
03:51PM 42.2289 -73.4886 61° Northeast 419 482 29,400 -1,560 Descending Boston Center
03:52PM 42.2864 -73.3381 63° Northeast 439 505 27,500 -2,040 Descending Boston Center
03:53PM 42.3458 -73.1761 64° Northeast 440 506 25,400 -1,920 Descending Boston Center
03:55PM 42.4008 -73.0361 62° Northeast 445 512 23,400 -1,980 Descending Boston Center
03:56PM 42.4664 -72.8622 63° Northeast 431 496 21,100 -1,200 Descending Boston Center
03:57PM 42.5106 -72.7500 62° Northeast 425 489 21,000 -1,200 Descending Boston Center
03:58PM 42.5692 -72.6008 62° Northeast 425 489 18,800 -1,620 Descending Boston Center
03:59PM 42.6214 -72.4597 63° Northeast 412 474 17,800 -1,680 Descending Boston Center
04:00PM 42.6714 -72.3272 63° Northeast 406 467 15,500 -2,400 Descending Boston Center
04:01PM 42.7211 -72.1886 64° Northeast 388 447 13,000 -1,980 Descending Boston Center
04:02PM 42.7564 -72.0950 63° Northeast 363 418 11,600 -1,740 Descending Boston Center
04:03PM 42.8100 -71.9844 57° Northeast 306 352 9,600 -1,800 Descending Boston Center
04:04PM 42.8514 -71.9019 56° Northeast 283 326 8,000 -1,860 Descending Boston Center
04:05PM 42.8989 -71.8081 55° Northeast 277 319 5,900 -1,980 Descending Boston Center
04:06PM 42.9381 -71.7397 52° Northeast 262 302 4,100 -1,140 Descending Boston Center
04:07PM 42.9814 -71.6597 53° Northeast 244 281 3,700 -600 Descending Boston Center
04:08PM 43.0039 -71.5997 63° Northeast 210 242 3,000 -720 Descending Boston Center